Time;durP1;ratioP1;P1;durP2;ratioP2;P2;SDS_P1;SDS_P2;PMS_P1;PMS_P2;Temp;Humidity;BMP_temperature;BMP_pressure;BME280_temperature;BME280_humidity;BME280_pressure;Samples;Min_cycle;Max_cycle;Signal;HPM_P1;HPM_P2
2023/09/17 00:00:41;;;;;;;1218.87;552.83;;;12.50;99.90;;;;;;5071263;28;20060;-84
2023/09/17 00:03:07;;;;;;;1178.27;506.13;;;12.50;99.90;;;;;;5071415;28;20041;-84
2023/09/17 00:05:36;;;;;;;1223.40;553.40;;;12.50;99.90;;;;;;5054601;28;20131;-84
2023/09/17 00:08:03;;;;;;;1208.53;540.77;;;12.50;99.90;;;;;;5057834;28;20462;-84
2023/09/17 00:10:30;;;;;;;1225.93;554.07;;;12.50;99.90;;;;;;5074300;28;20055;-84
2023/09/17 00:12:59;;;;;;;1195.67;538.67;;;12.50;99.90;;;;;;5092247;28;20561;-84
2023/09/17 00:15:26;;;;;;;1151.00;503.00;;;12.50;99.90;;;;;;5092973;28;20044;-84
2023/09/17 00:17:53;;;;;;;1135.93;490.00;;;12.50;99.90;;;;;;5074702;28;20149;-84
2023/09/17 00:20:19;;;;;;;1162.63;547.70;;;12.40;99.90;;;;;;5058084;28;20044;-85
2023/09/17 00:22:45;;;;;;;1163.60;549.70;;;12.40;99.90;;;;;;5057291;28;20039;-85
2023/09/17 00:25:11;;;;;;;1158.83;540.43;;;12.40;99.90;;;;;;5092927;28;20059;-84
2023/09/17 00:27:39;;;;;;;1133.87;479.23;;;12.40;99.90;;;;;;5074521;28;20504;-84
2023/09/17 00:30:11;;;;;;;1175.30;543.80;;;12.40;99.90;;;;;;5075406;28;20063;-85
2023/09/17 00:32:37;;;;;;;1135.77;491.63;;;12.40;99.90;;;;;;5074023;28;20087;-84
2023/09/17 00:35:06;;;;;;;1159.43;535.97;;;12.40;99.90;;;;;;5057859;28;20085;-85
2023/09/17 00:37:32;;;;;;;1165.63;536.30;;;12.40;99.90;;;;;;5074731;28;20108;-84
2023/09/17 00:40:00;;;;;;;1144.00;469.40;;;12.40;99.90;;;;;;5092625;28;20127;-84
2023/09/17 00:46:07;;;;;;;1142.60;474.07;;;12.40;99.90;;;;;;5078543;28;20043;-83
2023/09/17 00:48:33;;;;;;;1135.13;485.57;;;12.40;99.90;;;;;;5061695;28;20472;-84
2023/09/17 00:50:59;;;;;;;1130.97;474.57;;;12.40;99.90;;;;;;5078102;28;20051;-83
2023/09/17 00:53:26;;;;;;;1168.97;537.67;;;12.30;99.90;;;;;;5060986;28;20048;-84
2023/09/17 00:55:55;;;;;;;1133.97;477.27;;;12.30;99.90;;;;;;5078325;28;20047;-83
2023/09/17 00:58:21;;;;;;;1172.87;528.60;;;12.40;99.90;;;;;;5096467;28;20044;-84
2023/09/17 01:00:47;;;;;;;1149.50;456.37;;;12.30;99.90;;;;;;5077538;28;20036;-84
2023/09/17 01:03:13;;;;;;;1156.57;457.60;;;12.30;99.90;;;;;;5078085;28;20040;-84
2023/09/17 01:05:45;;;;;;;1164.33;472.17;;;12.30;99.90;;;;;;5060936;28;20052;-84
2023/09/17 01:08:15;;;;;;;1154.50;437.93;;;12.30;99.90;;;;;;5096195;28;20430;-84
2023/09/17 01:15:27;;;;;;;1138.20;428.77;;;12.30;99.90;;;;;;5095484;28;20042;-83
2023/09/17 01:17:58;;;;;;;1153.63;429.70;;;12.30;99.90;;;;;;5077166;28;20132;-83
2023/09/17 01:20:29;;;;;;;1194.63;519.17;;;12.30;99.90;;;;;;5061136;28;20053;-84
2023/09/17 01:23:13;;;;;;;1141.03;481.13;;;12.30;99.90;;;;;;5077412;28;20083;-84
2023/09/17 01:26:01;;;;;;;1157.20;522.60;;;12.30;99.90;;;;;;5095542;28;20047;-84
2023/09/17 01:28:31;;;;;;;1124.07;434.30;;;12.30;99.90;;;;;;5076637;28;20047;-83
2023/09/17 01:30:58;;;;;;;1138.70;437.70;;;12.30;99.90;;;;;;5095424;28;20040;-84
2023/09/17 01:33:24;;;;;;;1168.17;519.37;;;12.30;99.90;;;;;;5077370;28;20040;-84
2023/09/17 01:36:13;;;;;;;1108.90;425.07;;;12.30;99.90;;;;;;5095111;28;20492;-84
2023/09/17 01:38:46;;;;;;;1153.47;518.00;;;12.30;99.90;;;;;;5053028;28;20047;-83
2023/09/17 01:41:13;;;;;;;1095.27;425.03;;;12.30;99.90;;;;;;5077453;28;20032;-84
2023/09/17 01:43:40;;;;;;;1082.17;422.50;;;12.30;99.90;;;;;;5095379;28;20369;-84
2023/09/17 01:46:10;;;;;;;1070.40;428.83;;;12.20;99.90;;;;;;5095546;28;20069;-84
2023/09/17 01:48:38;;;;;;;1117.43;521.63;;;12.30;99.90;;;;;;5095001;28;20678;-84
2023/09/17 01:51:05;;;;;;;1084.47;422.70;;;12.50;99.90;;;;;;5077118;28;20117;-84
2023/09/17 01:53:32;;;;;;;1126.93;526.87;;;12.40;99.90;;;;;;5094286;28;20043;-84
2023/09/17 01:55:59;;;;;;;1101.20;424.27;;;12.40;99.90;;;;;;5076300;28;20301;-84
2023/09/17 01:58:25;;;;;;;1154.13;520.20;;;12.40;99.90;;;;;;5076432;28;20032;-84
2023/09/17 02:00:52;;;;;;;1155.70;520.57;;;12.40;99.90;;;;;;5059766;28;20106;-84
2023/09/17 02:03:18;;;;;;;1110.20;421.50;;;12.40;99.90;;;;;;5077000;28;20115;-84
2023/09/17 02:05:47;;;;;;;1166.00;517.73;;;12.40;99.90;;;;;;5094622;28;20073;-84
2023/09/17 02:08:13;;;;;;;1112.40;420.90;;;12.40;99.90;;;;;;5076115;28;20066;-84
2023/09/17 02:10:45;;;;;;;1085.23;425.93;;;12.50;99.90;;;;;;5060422;28;20051;-84
2023/09/17 02:16:52;;;;;;;1134.13;526.93;;;13.00;99.90;;;;;;5094439;28;20284;-84
2023/09/17 02:19:17;;;;;;;1069.97;424.23;;;13.10;99.90;;;;;;5094161;28;20036;-84
2023/09/17 02:21:43;;;;;;;1075.50;424.47;;;12.90;99.90;;;;;;5059307;28;20048;-84
2023/09/17 02:24:10;;;;;;;1107.23;524.83;;;12.90;99.90;;;;;;5076293;28;20047;-84
2023/09/17 02:26:36;;;;;;;1067.67;428.30;;;12.80;99.90;;;;;;5076197;28;20051;-86
2023/09/17 02:29:05;;;;;;;1082.33;428.23;;;12.70;99.90;;;;;;5075938;28;20308;-84
2023/09/17 02:31:31;;;;;;;1081.77;426.13;;;12.60;99.90;;;;;;5092606;28;20051;-84
2023/09/17 02:33:57;;;;;;;1084.73;527.30;;;12.50;99.90;;;;;;5059097;28;20290;-84
2023/09/17 02:36:23;;;;;;;994.80;415.83;;;12.50;99.90;;;;;;5076245;28;20040;-84
2023/09/17 02:38:49;;;;;;;992.63;413.87;;;12.60;99.90;;;;;;5075875;28;20424;-83
2023/09/17 02:41:15;;;;;;;1076.93;526.57;;;12.70;99.90;;;;;;5093731;28;20036;-84
2023/09/17 02:43:41;;;;;;;1066.57;524.83;;;12.80;99.90;;;;;;5076153;28;20054;-84
2023/09/17 02:46:07;;;;;;;1108.83;525.80;;;12.80;99.90;;;;;;5076528;28;20040;-84
2023/09/17 02:48:33;;;;;;;1062.53;424.53;;;12.90;99.90;;;;;;5075730;28;20114;-84
2023/09/17 02:51:01;;;;;;;1048.90;424.40;;;13.00;99.90;;;;;;5075316;28;20757;-84
2023/09/17 02:53:27;;;;;;;1041.53;427.00;;;13.10;99.90;;;;;;5058878;28;20126;-84
2023/09/17 02:55:56;;;;;;;1111.13;526.10;;;13.10;99.90;;;;;;5059166;28;20824;-84
2023/09/17 02:58:23;;;;;;;1102.20;528.37;;;13.30;99.90;;;;;;5059498;28;20058;-84
2023/09/17 03:00:49;;;;;;;1077.70;431.93;;;13.10;99.90;;;;;;5075672;28;20290;-84
2023/09/17 03:03:15;;;;;;;1064.67;430.07;;;12.90;99.90;;;;;;5075277;28;20298;-83
2023/09/17 03:05:46;;;;;;;1062.97;425.07;;;12.80;99.90;;;;;;5061645;28;20038;-83
2023/09/17 03:08:15;;;;;;;1077.00;432.23;;;12.80;99.90;;;;;;5070280;28;20661;-84
2023/09/17 03:10:44;;;;;;;1061.77;425.23;;;12.60;99.90;;;;;;5019074;28;20373;-83
2023/09/17 03:13:10;;;;;;;1107.47;528.10;;;12.50;99.90;;;;;;5041850;28;20295;-84
2023/09/17 03:15:36;;;;;;;1051.90;423.83;;;12.40;99.90;;;;;;5052067;28;20304;-84
2023/09/17 03:18:02;;;;;;;1037.70;422.50;;;12.40;99.90;;;;;;5053286;28;20279;-83
2023/09/17 03:20:33;;;;;;;1076.23;524.73;;;12.40;99.90;;;;;;5053407;28;20804;-84
2023/09/17 03:23:02;;;;;;;1057.80;425.87;;;12.40;99.90;;;;;;5051696;28;20291;-84
2023/09/17 03:25:31;;;;;;;1095.83;528.80;;;12.40;99.90;;;;;;5052022;28;20357;-84
2023/09/17 03:27:59;;;;;;;1055.47;423.93;;;12.40;99.90;;;;;;5051489;28;20456;-83
2023/09/17 03:30:26;;;;;;;1108.40;526.73;;;12.50;99.90;;;;;;5051691;28;20348;-84
2023/09/17 03:32:52;;;;;;;1092.37;524.60;;;12.50;99.90;;;;;;5034716;28;20287;-83
2023/09/17 03:35:18;;;;;;;1045.87;427.03;;;12.60;99.90;;;;;;5051863;28;20291;-83
2023/09/17 03:37:45;;;;;;;1101.17;525.63;;;12.60;99.90;;;;;;5051560;28;20656;-83
2023/09/17 03:40:12;;;;;;;1092.57;524.93;;;12.70;99.90;;;;;;5051740;28;20060;-83
2023/09/17 03:42:39;;;;;;;1089.27;524.00;;;12.80;99.90;;;;;;5051430;28;20132;-83
2023/09/17 03:45:11;;;;;;;1031.57;420.33;;;12.80;99.90;;;;;;5035080;28;20049;-83
2023/09/17 03:47:41;;;;;;;1032.40;416.87;;;12.90;99.90;;;;;;5034732;28;20291;-83
2023/09/17 03:50:08;;;;;;;1030.47;418.60;;;13.00;99.90;;;;;;5051713;28;20316;-83
2023/09/17 03:52:36;;;;;;;1036.03;418.57;;;13.10;99.90;;;;;;5035001;28;20326;-83
2023/09/17 03:55:07;;;;;;;1084.77;524.50;;;13.10;99.90;;;;;;5051003;28;20347;-83
2023/09/17 03:57:37;;;;;;;1098.13;527.83;;;13.20;99.90;;;;;;5052288;28;20780;-83
2023/09/17 04:00:07;;;;;;;1111.57;530.37;;;13.20;99.90;;;;;;5051174;28;20732;-83
2023/09/17 04:02:37;;;;;;;1053.17;422.60;;;13.00;99.90;;;;;;5051893;28;20426;-83
2023/09/17 04:05:11;;;;;;;1098.80;528.33;;;13.00;99.90;;;;;;5050648;28;20299;-83
2023/09/17 04:07:44;;;;;;;1053.50;423.07;;;13.30;99.90;;;;;;5051966;28;20318;-83
2023/09/17 04:10:12;;;;;;;1050.23;426.30;;;13.30;99.90;;;;;;5069892;28;20949;-83
2023/09/17 04:12:39;;;;;;;1102.93;526.23;;;13.30;99.90;;;;;;5071364;28;20298;-83
2023/09/17 04:15:10;;;;;;;1067.63;427.50;;;13.40;99.90;;;;;;5054443;28;20382;-83
2023/09/17 04:17:36;;;;;;;1057.73;425.57;;;13.40;99.90;;;;;;5071310;28;20319;-83
2023/09/17 04:20:03;;;;;;;1057.90;425.17;;;13.70;99.90;;;;;;5056833;28;20845;-83
2023/09/17 04:22:29;;;;;;;1114.33;528.53;;;13.70;99.90;;;;;;5058382;28;20599;-83
2023/09/17 04:24:55;;;;;;;1061.37;423.50;;;13.30;99.90;;;;;;5076535;28;20287;-84
2023/09/17 04:27:22;;;;;;;1106.33;527.77;;;13.30;99.90;;;;;;5074647;28;20040;-83
2023/09/17 04:29:49;;;;;;;1112.50;529.50;;;13.30;99.90;;;;;;5076292;28;20119;-83
2023/09/17 04:32:18;;;;;;;1107.07;529.27;;;13.30;99.90;;;;;;5076134;28;20044;-83
2023/09/17 04:34:44;;;;;;;1109.73;531.37;;;13.30;99.90;;;;;;5074412;28;20837;-83
2023/09/17 04:37:10;;;;;;;1114.03;528.87;;;13.20;99.90;;;;;;5074802;28;20291;-83
2023/09/17 04:39:36;;;;;;;1073.97;425.63;;;13.40;99.90;;;;;;5073649;28;20088;-83
2023/09/17 04:42:02;;;;;;;1089.23;430.40;;;13.40;99.90;;;;;;5074935;28;20358;-83
2023/09/17 04:44:30;;;;;;;1151.10;530.37;;;13.30;99.90;;;;;;5076276;28;20037;-83
2023/09/17 04:46:56;;;;;;;1101.73;437.93;;;13.50;99.90;;;;;;5074904;28;20301;-83
2023/09/17 04:49:22;;;;;;;1160.03;531.27;;;13.50;99.90;;;;;;5075499;28;20299;-83
2023/09/17 04:51:48;;;;;;;1163.83;533.83;;;13.50;99.90;;;;;;5075337;28;20392;-83
2023/09/17 04:54:14;;;;;;;1100.40;431.60;;;13.60;99.90;;;;;;5057297;28;20120;-83
2023/09/17 04:56:39;;;;;;;1093.03;432.47;;;13.60;99.90;;;;;;5074730;28;20091;-83
2023/09/17 04:59:05;;;;;;;1154.37;530.73;;;13.70;99.90;;;;;;5074323;28;20493;-83
2023/09/17 05:01:31;;;;;;;1151.47;530.43;;;13.70;99.90;;;;;;5075834;28;20567;-83
2023/09/17 05:03:58;;;;;;;1087.23;429.90;;;13.80;99.90;;;;;;5073585;28;20306;-83
2023/09/17 05:06:24;;;;;;;1161.67;535.13;;;13.90;99.90;;;;;;5073830;28;20040;-84
2023/09/17 05:08:52;;;;;;;1102.83;433.53;;;13.90;99.90;;;;;;5091037;28;20405;-82
2023/09/17 05:11:18;;;;;;;1155.53;534.50;;;14.00;99.90;;;;;;5073675;28;20039;-83
2023/09/17 05:13:43;;;;;;;1158.33;533.50;;;14.00;99.90;;;;;;5074399;28;20291;-83
2023/09/17 05:16:10;;;;;;;1087.47;431.93;;;14.10;99.90;;;;;;5074758;28;20105;-82
2023/09/17 05:18:36;;;;;;;1084.17;432.80;;;14.10;99.90;;;;;;5074252;28;20432;-83
2023/09/17 05:21:02;;;;;;;1139.87;529.83;;;14.20;99.90;;;;;;5074490;28;20299;-83
2023/09/17 05:23:28;;;;;;;1168.10;535.40;;;14.30;99.90;;;;;;5056913;28;20041;-83
2023/09/17 05:25:55;;;;;;;1163.90;537.33;;;14.40;99.90;;;;;;5075380;28;20114;-83
2023/09/17 05:28:21;;;;;;;1098.07;444.93;;;14.40;99.90;;;;;;5075193;28;20032;-83
2023/09/17 05:30:47;;;;;;;1081.00;440.73;;;14.50;99.90;;;;;;5056583;28;20306;-83
2023/09/17 05:33:12;;;;;;;1117.10;534.63;;;14.50;99.90;;;;;;5074655;28;20036;-83
2023/09/17 05:35:38;;;;;;;1120.33;538.37;;;14.60;99.90;;;;;;5074251;28;20307;-83
2023/09/17 05:38:05;;;;;;;1117.70;532.43;;;14.60;99.90;;;;;;5057648;28;20041;-83
2023/09/17 05:40:31;;;;;;;1074.60;435.07;;;14.60;99.90;;;;;;5074039;28;20556;-83
2023/09/17 05:42:57;;;;;;;1062.73;433.63;;;14.70;99.90;;;;;;5074593;28;20379;-83
2023/09/17 05:45:23;;;;;;;1079.03;441.37;;;14.70;99.90;;;;;;5074019;28;20680;-83
2023/09/17 05:47:52;;;;;;;1154.03;534.07;;;14.70;99.90;;;;;;5073552;28;20293;-83
2023/09/17 05:50:18;;;;;;;1085.97;437.97;;;14.70;99.90;;;;;;5075037;28;20314;-83
2023/09/17 05:52:44;;;;;;;1146.40;540.23;;;14.70;99.90;;;;;;5056783;28;20036;-85
2023/09/17 05:55:10;;;;;;;1136.40;536.07;;;14.70;99.90;;;;;;5073371;28;20059;-84
2023/09/17 05:57:36;;;;;;;1086.97;441.47;;;14.80;99.90;;;;;;5074200;28;20036;-83
2023/09/17 06:00:03;;;;;;;1139.63;532.30;;;14.70;99.90;;;;;;5056392;28;20309;-83
2023/09/17 06:02:29;;;;;;;1116.00;535.13;;;15.00;99.90;;;;;;5073549;28;20076;-83
2023/09/17 06:04:58;;;;;;;1113.50;536.43;;;14.80;99.90;;;;;;5072800;28;20790;-84
2023/09/17 06:07:24;;;;;;;1065.60;433.43;;;14.80;99.90;;;;;;5056043;28;20052;-83
2023/09/17 06:09:50;;;;;;;1128.37;537.03;;;14.90;99.90;;;;;;5072606;28;20056;-82
2023/09/17 06:12:16;;;;;;;1058.47;430.17;;;14.90;99.90;;;;;;5072674;28;20044;-83
2023/09/17 06:14:42;;;;;;;1064.50;431.57;;;14.90;99.90;;;;;;5072059;28;20087;-83
2023/09/17 06:17:08;;;;;;;1127.23;535.60;;;15.00;99.90;;;;;;5056533;28;20127;-82
2023/09/17 06:19:37;;;;;;;1130.70;538.97;;;15.10;99.90;;;;;;5049657;28;20780;-82
2023/09/17 06:22:07;;;;;;;1069.90;439.57;;;15.10;99.90;;;;;;5053340;28;20497;-83
2023/09/17 06:24:32;;;;;;;1118.40;533.40;;;15.10;99.90;;;;;;5054088;28;20298;-83
2023/09/17 06:26:58;;;;;;;1065.50;436.13;;;15.20;99.90;;;;;;5072209;28;20287;-83
2023/09/17 06:29:24;;;;;;;1119.17;517.03;;;15.20;99.90;;;;;;5072792;28;20131;-84
2023/09/17 06:31:53;;;;;;;1066.73;433.10;;;15.20;99.90;;;;;;5056124;28;20056;-82
2023/09/17 06:34:18;;;;;;;1075.30;441.27;;;15.30;99.90;;;;;;5055965;28;20485;-82
2023/09/17 06:36:47;;;;;;;1085.07;535.90;;;15.40;99.90;;;;;;5072492;28;20365;-84
2023/09/17 06:39:17;;;;;;;1047.17;434.07;;;15.40;99.90;;;;;;5073456;28;20036;-83
2023/09/17 06:52:45;;;;;;;1036.27;438.87;;;15.80;99.90;;;;;;5054039;28;20762;-85
2023/09/17 06:55:14;;;;;;;1063.80;528.30;;;15.90;99.90;;;;;;5035953;28;20292;-84
2023/09/17 06:57:43;;;;;;;1076.20;535.63;;;15.90;99.90;;;;;;5052586;28;20279;-84
2023/09/17 07:00:10;;;;;;;1028.93;440.83;;;16.00;99.90;;;;;;5058673;28;20295;-84
2023/09/17 07:02:38;;;;;;;1068.63;540.47;;;16.40;99.90;;;;;;5054877;28;20362;-83
2023/09/17 07:05:07;;;;;;;1065.33;539.43;;;16.10;99.90;;;;;;5072395;28;20310;-84
2023/09/17 07:07:33;;;;;;;1020.47;448.03;;;16.20;99.90;;;;;;5055276;28;20051;-82
2023/09/17 07:10:04;;;;;;;1012.13;441.67;;;16.30;99.90;;;;;;5071542;28;20803;-82
2023/09/17 07:12:35;;;;;;;1011.70;454.33;;;16.30;99.90;;;;;;5073376;28;20056;-83
2023/09/17 07:15:02;;;;;;;1023.17;535.73;;;16.40;99.90;;;;;;5073169;28;20356;-82
2023/09/17 07:17:28;;;;;;;996.77;458.57;;;16.50;99.90;;;;;;5073289;28;20707;-82
2023/09/17 07:19:54;;;;;;;1005.10;545.83;;;16.60;99.90;;;;;;5072285;28;20322;-83
2023/09/17 07:22:20;;;;;;;980.03;455.07;;;16.60;99.90;;;;;;5054620;28;20044;-83
2023/09/17 07:24:55;;;;;;;980.57;460.67;;;16.70;99.90;;;;;;5071439;28;20052;-83
2023/09/17 07:27:21;;;;;;;;;;;16.80;99.90;;;;;;5073209;28;20515;-82
2023/09/17 07:29:48;;;;;;;;;;;16.90;99.90;;;;;;5072484;28;19927;-82
2023/09/17 07:32:14;;;;;;;;;;;17.00;99.90;;;;;;5073379;28;19920;-80
2023/09/17 07:34:39;;;;;;;;;;;17.10;99.90;;;;;;5073082;28;19924;-85
2023/09/17 07:37:06;;;;;;;942.38;461.67;;;17.10;99.90;;;;;;5072994;28;19944;-82
2023/09/17 07:39:32;;;;;;;941.00;520.90;;;17.20;99.90;;;;;;5071669;28;20522;-82
2023/09/17 07:47:09;;;;;;;918.08;523.42;;;17.50;99.90;;;;;;5458911;22;20074;-83
2023/09/17 07:49:36;;;;;;;915.00;521.70;;;17.60;99.90;;;;;;5074995;28;20048;-82
2023/09/17 07:52:03;;;;;;;931.17;470.60;;;17.70;99.90;;;;;;5092726;28;20059;-82
2023/09/17 07:54:32;;;;;;;929.70;469.80;;;17.70;99.90;;;;;;5092651;28;20036;-83
2023/09/17 07:56:58;;;;;;;932.07;475.50;;;17.70;99.90;;;;;;5074711;28;20109;-82
2023/09/17 07:59:24;;;;;;;932.20;476.23;;;17.80;99.90;;;;;;5074940;28;20187;-82
2023/09/17 08:01:52;;;;;;;908.90;526.83;;;17.90;99.90;;;;;;5074635;28;20044;-82
2023/09/17 08:04:20;;;;;;;922.83;463.30;;;17.90;99.90;;;;;;5092938;28;20090;-82
2023/09/17 08:06:48;;;;;;;934.87;473.97;;;17.90;99.90;;;;;;5074911;28;20508;-82
2023/09/17 08:09:15;;;;;;;917.03;527.27;;;17.90;99.90;;;;;;5075355;28;20506;-82
2023/09/17 08:11:41;;;;;;;934.20;479.93;;;18.00;99.90;;;;;;5074914;28;20298;-82
2023/09/17 08:14:07;;;;;;;913.17;531.67;;;18.00;99.90;;;;;;5074713;28;20051;-82
2023/09/17 08:16:34;;;;;;;910.97;525.70;;;18.00;99.90;;;;;;5092546;28;20050;-82
2023/09/17 08:19:00;;;;;;;931.67;475.10;;;18.00;99.90;;;;;;5074645;28;20507;-83
2023/09/17 08:21:26;;;;;;;939.17;481.90;;;18.00;99.90;;;;;;5093013;28;20040;-82
2023/09/17 08:23:52;;;;;;;922.17;528.87;;;18.10;99.90;;;;;;5074225;28;20607;-81
2023/09/17 08:26:17;;;;;;;926.43;529.80;;;18.10;99.90;;;;;;5092394;28;20131;-82
2023/09/17 08:28:47;;;;;;;945.20;491.97;;;18.20;99.90;;;;;;5091748;28;20110;-82
2023/09/17 08:31:13;;;;;;;956.87;533.73;;;18.20;99.90;;;;;;5092161;28;20044;-82
2023/09/17 08:33:45;;;;;;;930.80;527.57;;;18.30;99.90;;;;;;5075027;28;20443;-82
2023/09/17 08:36:15;;;;;;;985.30;499.03;;;18.30;99.90;;;;;;5074724;28;20047;-82
2023/09/17 08:38:44;;;;;;;995.83;513.77;;;18.40;99.90;;;;;;5092858;28;20051;-82
2023/09/17 08:41:11;;;;;;;968.47;541.00;;;18.50;99.90;;;;;;5074783;28;20611;-82
2023/09/17 08:43:39;;;;;;;970.43;500.23;;;18.60;99.90;;;;;;5074339;28;20048;-82
2023/09/17 08:46:06;;;;;;;970.50;498.37;;;18.60;99.90;;;;;;5092238;28;20056;-82
2023/09/17 08:48:32;;;;;;;959.10;543.10;;;18.70;99.90;;;;;;5092671;28;20239;-82
2023/09/17 08:50:59;;;;;;;961.30;541.67;;;18.70;99.90;;;;;;5092604;28;20044;-82
2023/09/17 08:53:35;;;;;;;972.97;504.93;;;18.80;99.90;;;;;;5074746;28;20422;-81
2023/09/17 08:56:03;;;;;;;978.03;510.37;;;18.90;99.90;;;;;;5092336;28;20040;-82
2023/09/17 08:58:39;;;;;;;984.50;547.93;;;18.90;99.90;;;;;;5091880;28;20112;-82
2023/09/17 09:01:08;;;;;;;990.23;545.93;;;18.90;99.90;;;;;;5092687;28;20048;-81
2023/09/17 09:03:35;;;;;;;986.27;511.77;;;18.90;99.90;;;;;;5074284;28;20298;-81
2023/09/17 09:06:03;;;;;;;975.23;546.30;;;19.00;99.90;;;;;;5076670;28;20056;-82
2023/09/17 09:08:31;;;;;;;990.67;517.17;;;19.00;99.90;;;;;;5095732;28;20048;-83
2023/09/17 09:10:57;;;;;;;983.73;547.90;;;19.10;99.90;;;;;;5077706;28;20310;-82
2023/09/17 09:13:24;;;;;;;1014.90;550.17;;;19.10;99.90;;;;;;5095928;28;20289;-81
2023/09/17 09:15:50;;;;;;;1023.13;515.63;;;19.10;99.90;;;;;;5095699;28;20290;-82
2023/09/17 09:18:16;;;;;;;1014.80;516.00;;;19.20;99.90;;;;;;5077750;28;20044;-81
2023/09/17 09:20:42;;;;;;;1019.57;553.73;;;19.30;99.90;;;;;;5061749;28;20135;-82
2023/09/17 09:23:08;;;;;;;1012.43;548.33;;;19.30;99.90;;;;;;5095405;28;20496;-82
2023/09/17 09:25:34;;;;;;;1017.37;554.93;;;19.40;99.90;;;;;;5095647;28;20040;-82
2023/09/17 09:28:01;;;;;;;1013.47;523.67;;;19.50;99.90;;;;;;5077565;28;20131;-82
2023/09/17 09:30:28;;;;;;;1011.07;531.73;;;19.60;99.90;;;;;;5095435;28;20139;-81
2023/09/17 09:32:57;;;;;;;1003.63;554.47;;;19.50;99.90;;;;;;5095015;28;20289;-82
2023/09/17 09:35:24;;;;;;;1005.43;524.90;;;19.40;99.90;;;;;;5095200;28;20044;-82
2023/09/17 09:37:51;;;;;;;1011.93;530.17;;;19.40;99.90;;;;;;5095230;28;20036;-83
2023/09/17 09:40:17;;;;;;;1006.37;553.33;;;19.40;99.90;;;;;;5096516;28;20115;-82
2023/09/17 09:42:43;;;;;;;996.10;553.57;;;19.30;99.90;;;;;;5077363;28;20278;-82
2023/09/17 09:45:15;;;;;;;991.80;530.97;;;19.30;99.90;;;;;;5095403;28;20071;-81
2023/09/17 09:47:49;;;;;;;981.57;519.33;;;19.30;99.90;;;;;;5094865;28;20055;-82
2023/09/17 09:50:26;;;;;;;980.77;519.40;;;19.40;99.90;;;;;;5077007;28;20377;-82
2023/09/17 09:52:53;;;;;;;979.50;521.47;;;19.50;99.90;;;;;;5107098;28;20050;-82
2023/09/17 09:55:23;;;;;;;983.83;528.27;;;19.50;99.90;;;;;;5115099;28;20044;-81
2023/09/17 09:57:49;;;;;;;968.20;554.63;;;19.50;99.90;;;;;;5115222;28;20036;-82
2023/09/17 10:00:16;;;;;;;967.63;556.00;;;19.60;99.90;;;;;;5112784;28;20056;-82
2023/09/17 10:02:43;;;;;;;962.00;552.43;;;19.60;99.90;;;;;;5076639;28;20119;-81
2023/09/17 10:05:18;;;;;;;961.43;557.00;;;19.50;99.90;;;;;;5076800;28;20561;-82
2023/09/17 10:07:47;;;;;;;958.60;555.90;;;19.60;99.90;;;;;;5094793;28;20044;-81
2023/09/17 10:10:15;;;;;;;960.30;552.73;;;19.50;99.90;;;;;;5094752;28;20044;-82
2023/09/17 10:12:40;;;;;;;958.80;556.83;;;19.50;99.90;;;;;;5094806;28;20089;-82
2023/09/17 10:15:07;;;;;;;958.73;553.77;;;19.50;99.90;;;;;;5094704;28;20102;-83
2023/09/17 10:17:36;;;;;;;983.67;530.00;;;19.50;99.90;;;;;;5113072;28;20145;-83
2023/09/17 10:20:06;;;;;;;980.20;529.07;;;19.50;99.90;;;;;;5114623;28;20043;-82
2023/09/17 10:22:36;;;;;;;977.70;524.60;;;19.60;99.90;;;;;;5115271;28;20063;-84
2023/09/17 10:25:08;;;;;;;978.47;523.30;;;19.60;99.90;;;;;;5100670;28;20145;-82
2023/09/17 10:27:36;;;;;;;976.67;528.63;;;19.60;99.90;;;;;;5094760;28;20506;-83
2023/09/17 10:30:04;;;;;;;966.23;517.93;;;19.60;99.90;;;;;;5076606;28;20135;-83
2023/09/17 10:32:35;;;;;;;941.83;551.40;;;19.60;99.90;;;;;;5083921;28;20071;-82
2023/09/17 10:35:03;;;;;;;962.27;561.20;;;19.60;99.90;;;;;;5114772;28;20039;-82
2023/09/17 10:37:31;;;;;;;959.47;557.70;;;19.70;99.90;;;;;;5096478;28;20089;-82
2023/09/17 10:39:58;;;;;;;980.30;528.97;;;19.70;99.90;;;;;;5114899;28;20079;-82
2023/09/17 10:42:25;;;;;;;981.77;537.10;;;19.70;99.90;;;;;;5114884;28;20519;-82
2023/09/17 10:44:57;;;;;;;966.60;522.27;;;19.70;99.90;;;;;;5114613;28;20093;-83
2023/09/17 10:47:25;;;;;;;954.63;555.90;;;19.60;99.90;;;;;;5114359;28;20055;-82
2023/09/17 10:49:51;;;;;;;942.07;552.37;;;19.60;99.90;;;;;;5103820;28;20043;-82
2023/09/17 10:52:18;;;;;;;941.53;550.43;;;19.70;99.90;;;;;;5077956;28;20092;-82
2023/09/17 10:54:44;;;;;;;968.77;523.63;;;19.60;99.90;;;;;;5093881;28;20036;-82
2023/09/17 10:57:31;;;;;;;965.23;519.43;;;19.60;99.90;;;;;;5093957;28;20055;-82
2023/09/17 10:59:59;;;;;;;951.77;558.73;;;19.60;99.90;;;;;;5075433;28;20564;-84
2023/09/17 11:02:28;;;;;;;974.13;526.87;;;19.60;99.90;;;;;;5094008;28;20076;-83
2023/09/17 11:04:58;;;;;;;951.00;556.17;;;19.60;99.90;;;;;;5093574;28;20039;-82
2023/09/17 11:07:26;;;;;;;973.27;528.93;;;19.60;99.90;;;;;;5093920;28;20055;-82
2023/09/17 11:09:52;;;;;;;952.03;551.90;;;19.60;99.90;;;;;;5093429;28;20040;-80
2023/09/17 11:12:22;;;;;;;947.57;557.33;;;19.70;99.90;;;;;;5075290;28;20043;-79
2023/09/17 11:14:48;;;;;;;941.57;556.43;;;19.70;99.90;;;;;;5093619;28;20113;-80
2023/09/17 11:17:18;;;;;;;910.43;522.90;;;19.80;99.90;;;;;;5093424;28;20211;-80
2023/09/17 11:19:46;;;;;;;925.03;526.10;;;19.90;99.90;;;;;;5093707;28;20048;-83
2023/09/17 11:22:15;;;;;;;926.23;524.00;;;19.90;99.90;;;;;;5093606;28;20071;-83
2023/09/17 11:24:44;;;;;;;933.10;533.07;;;19.80;99.90;;;;;;5093455;28;20106;-84
2023/09/17 11:27:12;;;;;;;957.33;476.70;;;19.70;99.90;;;;;;5074880;28;20115;-84
2023/09/17 11:29:45;;;;;;;951.73;465.37;;;19.60;99.90;;;;;;5075083;28;20100;-84
2023/09/17 11:32:13;;;;;;;913.77;510.27;;;19.40;99.90;;;;;;5075165;28;20484;-85
2023/09/17 11:34:42;;;;;;;937.47;535.87;;;19.30;99.90;;;;;;5058819;28;20374;-85
2023/09/17 11:37:08;;;;;;;957.97;475.60;;;19.20;99.90;;;;;;5075298;28;20127;-86
2023/09/17 11:39:48;;;;;;;957.00;475.17;;;19.20;99.90;;;;;;5059008;28;20097;-84
2023/09/17 11:42:17;;;;;;;947.53;547.57;;;19.30;99.90;;;;;;5093369;28;20048;-84
2023/09/17 11:44:45;;;;;;;948.50;545.90;;;19.60;99.90;;;;;;5093177;28;20416;-84
2023/09/17 11:47:15;;;;;;;941.47;543.03;;;19.60;99.90;;;;;;5074298;28;20052;-83
2023/09/17 11:49:41;;;;;;;938.83;538.77;;;19.70;99.90;;;;;;5092498;28;20043;-85
2023/09/17 11:52:11;;;;;;;964.87;495.17;;;19.80;99.90;;;;;;5092541;28;20453;-84
2023/09/17 11:55:15;;;;;;;958.37;484.37;;;19.70;99.90;;;;;;5113642;28;20039;-84
2023/09/17 11:57:41;;;;;;;932.50;532.37;;;19.70;99.90;;;;;;5014432;28;20509;-81
2023/09/17 12:00:12;;;;;;;961.50;488.83;;;19.60;99.90;;;;;;5014460;28;20096;-83
2023/09/17 12:02:39;;;;;;;939.17;544.27;;;19.60;99.90;;;;;;5012265;28;20434;-84
2023/09/17 12:05:05;;;;;;;965.03;493.93;;;19.60;99.90;;;;;;5009345;28;20104;-82
2023/09/17 12:07:33;;;;;;;947.33;546.13;;;19.60;99.90;;;;;;5011894;28;20053;-84
2023/09/17 12:10:05;;;;;;;967.23;501.23;;;19.50;99.90;;;;;;4994119;28;20045;-85
2023/09/17 12:12:35;;;;;;;966.73;497.30;;;19.50;99.90;;;;;;4994713;28;20120;-85
2023/09/17 12:15:06;;;;;;;941.20;540.67;;;19.50;99.90;;;;;;5011187;28;20046;-87
2023/09/17 12:17:36;;;;;;;964.40;498.47;;;19.50;99.90;;;;;;5011730;28;20050;-83
2023/09/17 12:20:33;;;;;;;941.13;540.97;;;19.50;99.90;;;;;;5011075;28;20045;-81
2023/09/17 12:23:03;;;;;;;937.50;538.70;;;19.50;99.90;;;;;;4994519;28;20058;-83
2023/09/17 12:25:28;;;;;;;938.37;539.27;;;19.40;99.90;;;;;;5015404;28;20037;-90
2023/09/17 12:27:54;;;;;;;960.30;487.77;;;19.40;99.90;;;;;;5066543;28;20056;-84
2023/09/17 12:30:20;;;;;;;961.73;491.57;;;19.40;99.90;;;;;;5073997;28;20044;-82
2023/09/17 12:32:52;;;;;;;964.20;494.27;;;19.40;99.90;;;;;;5074330;28;20043;-83
2023/09/17 12:35:18;;;;;;;967.27;498.20;;;19.40;99.90;;;;;;5075202;28;20047;-84